Terminal Aerodrome Forecast
Issued by NWS Green Bay, WI

Home | Current Version | Previous Version | Graphics & Text | Print | Product List | Glossary On
Versions: 1 2 3 4 5 6 7 8 9 10 11 12 13 14 15 16 17 18 19 20 21 22 23 24 25 26 27 28 29 30
000
FTUS43 KGRB 180238 AAB
TAFGRB
TAF AMD
KGRB 180238Z 1803/1824 33003KT 1/2SM FG OVC003
     FM180330 32005KT 1 1/2SM BR BKN007
     FM180500 27004KT 5SM BR SCT007 BKN015
     FM180700 26005KT 3SM BR SCT015 OVC025
     FM181100 23008KT 2SM BR OVC006
     FM181800 22010KT P6SM SCT010=

USA.gov is the U.S. government's official web portal to all federal, state and local government web resources and services.